createdAt,value
2022-12-08T00:00:23.309Z,13.18
2022-12-08T00:05:43.499Z,14.02
2022-12-08T00:10:49.957Z,13.32
2022-12-08T00:15:51.711Z,13.20
2022-12-08T00:20:57.693Z,14.43
2022-12-08T00:26:06.199Z,13.13
2022-12-08T00:31:09.923Z,14.23
2022-12-08T00:36:13.865Z,14.10
2022-12-08T00:41:18.427Z,13.43
2022-12-08T00:46:20.170Z,14.23
2022-12-08T00:51:21.806Z,13.70
2022-12-08T00:56:23.524Z,13.32
2022-12-08T01:01:25.153Z,13.85
2022-12-08T01:06:26.712Z,12.02
2022-12-08T01:11:28.845Z,13.32
2022-12-08T01:16:33.941Z,12.05
2022-12-08T01:21:36.380Z,13.13
2022-12-08T01:26:38.312Z,11.65
2022-12-08T01:31:40.059Z,11.63
2022-12-08T01:36:42.223Z,11.35
2022-12-08T01:41:45.370Z,11.57
2022-12-08T01:46:49.882Z,11.98
2022-12-08T01:51:59.074Z,10.60
2022-12-08T01:57:15.188Z,10.27
2022-12-08T02:02:17.157Z,11.18
2022-12-08T02:07:18.956Z,10.85
2022-12-08T02:12:20.765Z,10.45
2022-12-08T02:17:49.536Z,10.85
2022-12-08T02:23:28.638Z,11.33
2022-12-08T02:28:52.829Z,10.30
2022-12-08T02:34:16.135Z,10.13
2022-12-08T02:39:27.131Z,9.77
2022-12-08T02:44:35.158Z,9.00
2022-12-08T02:49:36.750Z,8.50
2022-12-08T02:54:50.668Z,9.27
2022-12-08T03:00:16.994Z,10.25
2022-12-08T03:05:27.341Z,9.45
2022-12-08T03:10:37.681Z,9.27
2022-12-08T03:15:41.657Z,9.93
2022-12-08T03:20:46.393Z,9.82
2022-12-08T03:25:56.795Z,9.73
2022-12-08T03:31:03.011Z,9.38
2022-12-08T03:36:08.925Z,9.60
2022-12-08T03:41:20.056Z,9.52
2022-12-08T03:51:24.704Z,10.77
2022-12-08T03:56:32.789Z,10.63
2022-12-08T04:01:34.463Z,10.45
2022-12-08T04:06:36.146Z,10.48
2022-12-08T04:11:37.758Z,9.98
2022-12-08T04:16:39.381Z,10.15
2022-12-08T04:21:41.110Z,9.70
2022-12-08T04:26:42.655Z,8.95
2022-12-08T04:31:44.753Z,8.75
2022-12-08T04:36:48.517Z,9.90
2022-12-08T04:41:50.109Z,8.60
2022-12-08T04:46:51.756Z,7.47
2022-12-08T04:51:53.355Z,9.10
2022-12-08T04:56:55.070Z,8.68
2022-12-08T05:01:56.818Z,11.55
2022-12-08T05:06:58.781Z,9.45
2022-12-08T05:12:00.427Z,9.40
2022-12-08T05:17:07.758Z,9.18
2022-12-08T05:22:11.383Z,9.90
2022-12-08T05:27:12.976Z,9.45
2022-12-08T05:32:14.606Z,9.95
2022-12-08T05:37:16.222Z,9.13
2022-12-08T05:42:23.142Z,10.90
2022-12-08T05:47:27.523Z,12.93
2022-12-08T05:52:30.398Z,13.30
2022-12-08T05:57:32.059Z,14.13
2022-12-08T06:02:34.128Z,12.95
2022-12-08T06:07:35.908Z,14.30
2022-12-08T06:12:37.785Z,14.35
2022-12-08T06:17:39.355Z,15.60
2022-12-08T06:22:40.943Z,13.90
2022-12-08T06:27:42.531Z,16.02
2022-12-08T06:32:44.258Z,14.77
2022-12-08T06:37:45.840Z,13.88
2022-12-08T06:42:47.704Z,15.50
2022-12-08T06:47:49.248Z,15.50
2022-12-08T06:53:01.090Z,13.80
2022-12-08T06:58:06.541Z,13.63
2022-12-08T07:03:09.862Z,13.98
2022-12-08T07:08:11.733Z,12.52
2022-12-08T07:13:13.360Z,13.13
2022-12-08T07:18:14.958Z,13.18
2022-12-08T07:23:16.804Z,14.05
2022-12-08T07:28:18.347Z,15.20
2022-12-08T07:33:19.905Z,16.02
2022-12-08T07:38:21.445Z,15.60
2022-12-08T07:43:23.634Z,16.58
2022-12-08T07:48:25.177Z,16.08
2022-12-08T07:53:29.291Z,18.65
2022-12-08T07:58:30.842Z,19.98
2022-12-08T08:03:33.416Z,18.48
2022-12-08T08:08:34.968Z,17.40
2022-12-08T08:13:37.356Z,17.63
2022-12-08T08:18:40.246Z,19.67
2022-12-08T08:23:41.787Z,16.95
2022-12-08T08:28:45.787Z,19.73
2022-12-08T08:33:49.519Z,18.45
2022-12-08T08:38:51.132Z,19.55
2022-12-08T08:43:54.825Z,17.88
2022-12-08T08:48:56.639Z,16.88
2022-12-08T08:53:58.564Z,16.13
2022-12-08T08:59:00.141Z,17.02
2022-12-08T09:04:01.903Z,16.30
2022-12-08T09:09:03.912Z,14.75
2022-12-08T09:14:05.665Z,15.65
2022-12-08T09:19:07.332Z,16.20
2022-12-08T09:24:15.542Z,16.90
2022-12-08T09:35:33.909Z,15.20
2022-12-08T09:40:49.015Z,16.52
2022-12-08T09:45:51.804Z,18.33
2022-12-08T09:50:56.420Z,15.77
2022-12-08T09:56:08.660Z,16.13
2022-12-08T10:01:11.522Z,14.02
2022-12-08T10:06:21.573Z,13.68
2022-12-08T10:11:32.719Z,13.27
2022-12-08T10:16:39.186Z,13.68
2022-12-08T10:21:43.878Z,13.80
2022-12-08T10:26:49.188Z,13.05
2022-12-08T10:31:50.826Z,11.93
2022-12-08T10:36:58.345Z,12.32
2022-12-08T10:42:09.227Z,11.25
2022-12-08T10:47:14.065Z,11.02
2022-12-08T10:52:25.374Z,12.27
2022-12-08T10:57:27.087Z,12.02
2022-12-08T11:02:28.778Z,12.18
2022-12-08T11:07:30.505Z,13.05
2022-12-08T11:12:32.199Z,12.20
2022-12-08T11:17:39.518Z,11.77
2022-12-08T11:22:54.186Z,10.43
2022-12-08T11:28:01.211Z,8.00
2022-12-08T11:33:16.420Z,8.18
2022-12-08T11:38:24.312Z,9.05
2022-12-08T11:43:34.838Z,8.65
2022-12-08T11:48:38.406Z,8.65
2022-12-08T11:54:07.101Z,8.85
2022-12-08T11:59:15.876Z,8.18
2022-12-08T12:04:31.138Z,8.05
2022-12-08T12:09:51.882Z,7.97
2022-12-08T12:15:30.074Z,7.85
2022-12-08T12:20:57.560Z,7.72
2022-12-08T12:26:02.569Z,7.13
2022-12-08T12:31:12.060Z,7.57
2022-12-08T12:36:15.237Z,6.57
2022-12-08T12:41:25.533Z,6.40
2022-12-08T12:46:27.344Z,6.55
2022-12-08T12:51:39.006Z,6.20
2022-12-08T12:56:55.520Z,5.60
2022-12-08T13:01:57.482Z,7.13
2022-12-08T13:06:59.839Z,6.53
2022-12-08T13:12:10.344Z,5.43
2022-12-08T13:17:16.217Z,5.78
2022-12-08T13:22:50.513Z,6.50
2022-12-08T13:27:53.898Z,5.82
2022-12-08T13:38:25.493Z,6.60
2022-12-08T14:00:37.035Z,6.53
2022-12-08T14:06:11.192Z,6.68
2022-12-08T14:11:06.953Z,6.85
2022-12-08T14:16:39.551Z,6.57
2022-12-08T14:21:57.929Z,6.35
2022-12-08T14:27:02.192Z,6.57
2022-12-08T14:32:05.934Z,6.88
2022-12-08T14:37:12.941Z,7.15
2022-12-08T14:42:25.129Z,6.60
2022-12-08T14:47:33.362Z,6.90
2022-12-08T14:52:34.952Z,5.65
2022-12-08T14:57:36.582Z,7.68
2022-12-08T15:02:45.851Z,7.32
2022-12-08T15:07:52.206Z,6.57
2022-12-08T15:13:17.610Z,6.43
2022-12-08T15:18:35.607Z,6.65
2022-12-08T15:23:44.764Z,6.80
2022-12-08T15:28:46.339Z,5.93
2022-12-08T15:33:47.965Z,6.18
2022-12-08T15:38:49.536Z,5.60
2022-12-08T15:43:51.044Z,5.22
2022-12-08T15:48:57.883Z,5.13
2022-12-08T15:53:59.806Z,5.72
2022-12-08T15:59:01.364Z,5.60
2022-12-08T16:09:32.160Z,5.60
2022-12-08T16:15:39.771Z,6.32
2022-12-08T16:19:55.882Z,5.68
2022-12-08T16:25:05.001Z,6.25
2022-12-08T16:30:18.035Z,6.10
2022-12-08T16:35:19.620Z,5.32
2022-12-08T16:40:21.328Z,6.63
2022-12-08T16:45:28.851Z,5.60
2022-12-08T16:50:32.959Z,12.20
2022-12-08T16:55:35.007Z,13.38
2022-12-08T17:00:37.269Z,12.77
2022-12-08T17:05:40.890Z,12.05
2022-12-08T17:10:42.662Z,10.23
2022-12-08T17:15:44.204Z,9.07
2022-12-08T17:20:45.755Z,8.68
2022-12-08T17:25:58.791Z,8.75
2022-12-08T17:31:00.478Z,7.30
2022-12-08T17:36:02.036Z,8.65
2022-12-08T17:41:08.645Z,8.48
2022-12-08T17:46:16.106Z,8.38
2022-12-08T17:51:18.293Z,8.55
2022-12-08T17:56:21.522Z,8.05
2022-12-08T18:01:23.709Z,8.20
2022-12-08T18:06:29.639Z,7.63
2022-12-08T18:11:33.699Z,8.10
2022-12-08T18:16:40.204Z,6.05
2022-12-08T18:21:42.520Z,5.82
2022-12-08T18:26:44.139Z,11.82
2022-12-08T18:31:45.718Z,10.60
2022-12-08T18:36:47.577Z,16.25
2022-12-08T18:41:49.298Z,14.85
2022-12-08T18:46:51.068Z,11.85
2022-12-08T18:51:52.970Z,13.60
2022-12-08T18:56:54.582Z,12.48
2022-12-08T19:01:57.750Z,13.45
2022-12-08T19:06:59.338Z,13.82
2022-12-08T19:12:00.895Z,12.32
2022-12-08T19:17:02.476Z,13.50
2022-12-08T19:22:04.054Z,13.43
2022-12-08T19:27:05.972Z,10.75
2022-12-08T19:32:07.579Z,11.25
2022-12-08T19:37:12.472Z,10.02
2022-12-08T19:42:39.435Z,10.50
2022-12-08T19:47:42.130Z,11.50
2022-12-08T19:52:44.754Z,13.48
2022-12-08T19:57:46.320Z,7.70
2022-12-08T20:02:48.589Z,8.00
2022-12-08T20:07:50.438Z,7.85
2022-12-08T20:13:12.009Z,8.90
2022-12-08T20:18:15.232Z,10.85
2022-12-08T20:23:17.044Z,9.20
2022-12-08T20:28:19.206Z,8.70
2022-12-08T20:33:20.824Z,9.70
2022-12-08T20:38:22.392Z,10.38
2022-12-08T20:43:25.262Z,9.45
2022-12-08T20:48:26.975Z,9.40
2022-12-08T20:53:29.297Z,9.55
2022-12-08T20:58:30.893Z,12.57
2022-12-08T21:03:32.954Z,14.70
2022-12-08T21:08:35.431Z,12.50
2022-12-08T21:13:38.579Z,11.80
2022-12-08T21:18:41.231Z,13.43
2022-12-08T21:23:43.207Z,10.85
2022-12-08T21:28:45.080Z,9.65
2022-12-08T21:33:47.036Z,12.25
2022-12-08T21:38:49.008Z,12.70
2022-12-08T21:43:50.648Z,15.57
2022-12-08T21:48:52.450Z,14.15
2022-12-08T21:53:55.077Z,12.35
2022-12-08T21:58:57.109Z,12.55
2022-12-08T22:03:58.875Z,10.57
2022-12-08T22:09:00.685Z,10.65
2022-12-08T22:14:02.391Z,8.73
2022-12-08T22:19:04.072Z,10.00
2022-12-08T22:24:06.323Z,9.88
2022-12-08T22:29:08.486Z,9.93
2022-12-08T22:34:10.363Z,10.68
2022-12-08T22:39:12.678Z,10.40
2022-12-08T22:44:15.943Z,10.45
2022-12-08T22:49:17.630Z,9.45
2022-12-08T22:54:19.556Z,9.27
2022-12-08T22:59:21.150Z,10.25
2022-12-08T23:04:23.051Z,9.50
2022-12-08T23:09:24.783Z,10.43
2022-12-08T23:14:26.446Z,9.75
2022-12-08T23:19:28.031Z,8.88
2022-12-08T23:24:29.784Z,8.60
2022-12-08T23:29:31.413Z,9.68
2022-12-08T23:34:35.123Z,9.40
2022-12-08T23:39:36.665Z,8.48
2022-12-08T23:44:38.259Z,8.73
2022-12-08T23:49:39.834Z,9.52
2022-12-08T23:54:41.466Z,11.70
2022-12-08T23:59:43.110Z,10.40
